Barnard, KS

5:47 AM CDT on May 30, 2015 (GMT -0500)
Center Township | | Change Station
CLOSE
Current Station
Personal Weather Station
Location: BELOIT, KS
Elevation: 1504 ft
Nearby Weather Stations

Elev 1504 ft 39.33 °N, 98.15 °W | Updated 4 seconds ago

Overcast
Overcast
50.5 °F
Feels Like 50.5 °F
N
10.0
Wind Variable Wind from North
Gusts 18.0 mph

Today
High -- | Low -- °F
--% Chance of Precip.
Yesterday
High -- | Low -- °F
Precip. -- in
6:09 AM 8:51 PM
Waxing Gibbous, 89% visible
Pressure 30.12 in
Visibility 9.0 miles
Clouds Mostly Cloudy 1500 ft
Overcast 2100 ft
Dew Point 47 °F
Humidity 87%
Rainfall 0.00 in
Snow Depth Not available.
UV 0 out of 12
Pollen 3.90 out of 12
Air Quality Not available.
Flu Activity No Activity
METAR KCNK 300955Z AUTO 35012KT 9SM BKN015 OVC021 10/08 A3014 RMK AO2 SLP199 T01000083

More Conditions Fewer Conditions

Pressure 30.12 in
Visibility 9.0 miles
Clouds Mostly Cloudy 1500 ft
Overcast 2100 ft
Dew Point 47 °F
Humidity 87%
Rainfall 0.00 in
Snow Depth Not available.
UV 0 out of 12
Pollen 3.90 out of 12
Air Quality Not available.
Flu Activity No Activity
METAR KCNK 300955Z AUTO 35012KT 9SM BKN015 OVC021 10/08 A3014 RMK AO2 SLP199 T01000083

More Conditions Fewer Conditions

10-Day Weather Forecast

Almanac

Astronomy

May. 30, 2015 Rise Set
Actual Time
Civil Twilight
Nautical Twilight
Astronomical Twilight
Moon
Length of Visible Light
Length of Day
Tomorrow will be .
, % of the Moon is Illuminated

Today's Extremes

State Highs State Lows

Community

WunderPhotos

Upload Photos

1,825,478 photos uploaded!

WunderBlogs® & News

Nearby

Air Quality

  Air Quality AQ Index Pollutant
Not available.

Snow Depth

Station Depth Elevation

Earthquake Activity

City Distance Mag. Time & Date
Minimum magnitude displayed is 2.5.

Coastal Water Temperatures

Place Temperature

Stations

Nearby Weather Stations

Station Location Temp. Windchill Dew Point Humidity Wind Precip. Elev Updated Type